Keego, Alabama
Current Conditions -  °F | °C
As of 8:53 AM on Friday 24 Oct 2014 (Local Time) from KGZH Reporting Station
Clear Clear  
Wind Chill: 57°   Ceiling: Unl
Heat Index: 57°   Visibility: 10mi
Dew Point: 50°   Wind: 3mph
Humidity: 77%   Direction: 320°NW
Pressure: 30.1"   Gusts: NA
Location:  31.165°N, 87.0243°W
Report Text: KGZH 241353Z AUTO 32003KT 10SM CLR 14/10 A3010 RMK AO2 SLP191 T01390100
Loading
Personal Weather Stations






























Interactive Weather Map
Tropical Storm Tracking
New forecast layout! Learn more

10-Day Weather Forecast

Advertisements
Track Severe Weather on mobile